createdAt,value
2017-11-23T00:00:58.288Z,84.31
2017-11-23T00:02:00.964Z,84.00
2017-11-23T00:03:03.669Z,83.75
2017-11-23T00:04:06.362Z,83.17
2017-11-23T00:05:09.033Z,83.29
2017-11-23T00:06:11.981Z,83.91
2017-11-23T00:07:14.633Z,83.85
2017-11-23T00:08:17.302Z,84.25
2017-11-23T00:09:19.942Z,84.22
2017-11-23T00:10:22.597Z,84.48
2017-11-23T00:11:25.229Z,84.08
2017-11-23T00:12:28.183Z,84.19
2017-11-23T00:13:30.899Z,84.37
2017-11-23T00:14:33.667Z,84.46
2017-11-23T00:15:36.303Z,84.52
2017-11-23T00:16:39.018Z,84.59
2017-11-23T00:17:41.626Z,84.42
2017-11-23T00:18:44.646Z,84.44
2017-11-23T00:19:47.250Z,84.40
2017-11-23T00:20:49.860Z,84.40
2017-11-23T00:21:52.495Z,84.13
2017-11-23T00:22:55.183Z,84.62
2017-11-23T00:23:57.833Z,84.50
2017-11-23T00:25:00.740Z,83.69
2017-11-23T00:26:03.382Z,83.80
2017-11-23T00:27:06.031Z,83.29
2017-11-23T00:28:08.650Z,82.71
2017-11-23T00:29:11.426Z,82.88
2017-11-23T00:30:14.057Z,83.66
2017-11-23T00:31:17.017Z,84.24
2017-11-23T00:32:19.715Z,83.95
2017-11-23T00:33:22.365Z,84.32
2017-11-23T00:34:25.072Z,84.29
2017-11-23T00:35:27.788Z,84.80
2017-11-23T00:36:30.480Z,84.88
2017-11-23T00:37:34.120Z,85.13
2017-11-23T00:38:36.772Z,85.16
2017-11-23T00:39:39.419Z,85.79
2017-11-23T00:40:42.078Z,85.98
2017-11-23T00:41:45.763Z,85.99
2017-11-23T00:42:48.378Z,86.20
2017-11-23T00:43:51.434Z,85.19
2017-11-23T00:44:54.084Z,84.92
2017-11-23T00:45:56.881Z,85.03
2017-11-23T00:46:59.516Z,84.86
2017-11-23T00:48:02.125Z,85.25
2017-11-23T00:49:04.683Z,85.58
2017-11-23T00:50:07.530Z,85.67
2017-11-23T00:51:10.105Z,85.61
2017-11-23T00:52:12.648Z,85.58
2017-11-23T00:53:15.232Z,86.21
2017-11-23T00:54:17.773Z,86.39
2017-11-23T00:55:20.448Z,86.46
2017-11-23T00:56:23.467Z,85.97
2017-11-23T00:57:26.126Z,86.16
2017-11-23T00:58:28.788Z,86.26
2017-11-23T00:59:31.458Z,86.18
2017-11-23T01:00:33.962Z,86.06
2017-11-23T01:01:36.464Z,86.34
2017-11-23T01:02:39.330Z,86.32
2017-11-23T01:03:41.940Z,86.69
2017-11-23T01:04:44.534Z,86.86
2017-11-23T01:05:47.104Z,86.88
2017-11-23T01:06:50.552Z,86.99
2017-11-23T01:07:53.151Z,86.55
2017-11-23T01:08:56.014Z,86.50
2017-11-23T01:09:58.649Z,86.56
2017-11-23T01:11:01.302Z,86.44
2017-11-23T01:12:03.962Z,86.54
2017-11-23T01:13:06.626Z,86.57
2017-11-23T01:14:09.385Z,86.67
2017-11-23T01:15:12.294Z,86.68
2017-11-23T01:16:14.903Z,86.93
2017-11-23T01:17:17.567Z,86.70
2017-11-23T01:18:20.240Z,86.72
2017-11-23T01:19:22.948Z,86.51
2017-11-23T01:20:25.664Z,86.60
2017-11-23T01:21:28.609Z,86.67
2017-11-23T01:22:36.067Z,86.10
2017-11-23T01:23:38.644Z,86.24
2017-11-23T01:24:41.191Z,86.40
2017-11-23T01:25:43.839Z,86.84
2017-11-23T01:26:46.490Z,86.70
2017-11-23T01:27:49.423Z,86.54
2017-11-23T01:28:52.062Z,85.88
2017-11-23T01:29:54.700Z,85.83
2017-11-23T01:30:57.330Z,86.12
2017-11-23T01:31:59.974Z,86.31
2017-11-23T01:33:02.640Z,86.34
2017-11-23T01:34:05.619Z,86.68
2017-11-23T01:35:08.279Z,86.71
2017-11-23T01:36:11.303Z,86.79
2017-11-23T01:37:14.088Z,87.25
2017-11-23T01:38:16.736Z,87.43
2017-11-23T01:39:19.373Z,87.42
2017-11-23T01:40:22.051Z,87.59
2017-11-23T01:41:24.676Z,87.69
2017-11-23T01:42:27.351Z,87.80
2017-11-23T01:43:30.018Z,87.71
2017-11-23T01:44:32.701Z,87.75
2017-11-23T01:45:35.390Z,87.66
2017-11-23T01:46:38.382Z,87.48
2017-11-23T01:47:41.552Z,87.69
2017-11-23T01:48:44.310Z,87.35
2017-11-23T01:49:46.939Z,87.33
2017-11-23T01:50:50.481Z,87.33
2017-11-23T01:51:53.101Z,87.14
2017-11-23T01:52:56.022Z,87.21
2017-11-23T01:53:58.782Z,87.18
2017-11-23T01:55:01.456Z,86.96
2017-11-23T01:56:04.303Z,87.18
2017-11-23T01:57:06.993Z,87.16
2017-11-23T01:58:09.738Z,87.51
2017-11-23T01:59:12.762Z,87.54
2017-11-23T02:00:15.627Z,87.76
2017-11-23T02:01:18.298Z,87.41
2017-11-23T02:02:21.050Z,87.37
2017-11-23T02:03:23.698Z,86.95
2017-11-23T02:04:26.357Z,87.43
2017-11-23T02:05:29.265Z,87.54
2017-11-23T02:06:31.915Z,87.40
2017-11-23T02:07:34.548Z,87.22
2017-11-23T02:08:37.248Z,86.86
2017-11-23T02:09:39.817Z,86.11
2017-11-23T02:10:42.551Z,86.03
2017-11-23T02:11:45.560Z,86.21
2017-11-23T02:12:48.274Z,85.72
2017-11-23T02:13:51.020Z,85.05
2017-11-23T02:14:53.675Z,85.14
2017-11-23T02:15:56.340Z,84.42
2017-11-23T02:16:59.029Z,84.20
2017-11-23T02:18:01.992Z,82.65
2017-11-23T02:19:04.671Z,82.13
2017-11-23T02:20:07.353Z,82.17
2017-11-23T02:21:10.039Z,83.48
2017-11-23T02:22:12.771Z,84.31
2017-11-23T02:23:15.595Z,85.54
2017-11-23T02:24:18.655Z,86.03
2017-11-23T02:25:21.423Z,86.14
2017-11-23T02:26:34.820Z,86.39
2017-11-23T02:27:37.515Z,86.12
2017-11-23T02:28:40.192Z,86.59
2017-11-23T02:29:42.937Z,86.67
2017-11-23T02:30:45.911Z,86.47
2017-11-23T02:31:48.570Z,86.93
2017-11-23T02:32:51.226Z,86.60
2017-11-23T02:33:53.954Z,87.13
2017-11-23T02:34:56.705Z,87.38
2017-11-23T02:35:59.475Z,87.53
2017-11-23T02:37:02.520Z,85.99
2017-11-23T02:38:05.173Z,84.46
2017-11-23T02:39:07.917Z,84.32
2017-11-23T02:40:10.558Z,84.22
2017-11-23T02:41:13.245Z,84.66
2017-11-23T02:42:15.824Z,84.64
2017-11-23T02:43:18.715Z,84.92
2017-11-23T02:44:21.270Z,84.35
2017-11-23T02:45:23.830Z,83.46
2017-11-23T02:46:26.397Z,82.41
2017-11-23T02:47:28.946Z,82.17
2017-11-23T02:48:31.516Z,82.57
2017-11-23T02:49:34.486Z,82.43
2017-11-23T02:50:37.133Z,81.35
2017-11-23T02:51:39.755Z,81.01
2017-11-23T02:52:42.388Z,81.29
2017-11-23T02:53:45.062Z,81.78
2017-11-23T02:54:47.663Z,82.49
2017-11-23T02:55:50.593Z,82.10
2017-11-23T02:56:53.245Z,81.79
2017-11-23T02:57:55.963Z,81.22
2017-11-23T02:58:58.589Z,79.59
2017-11-23T03:00:01.275Z,76.91
2017-11-23T03:01:03.946Z,75.37
2017-11-23T03:02:06.925Z,74.87
2017-11-23T03:03:09.560Z,74.94
2017-11-23T03:04:12.373Z,75.29
2017-11-23T03:05:15.010Z,74.55
2017-11-23T03:06:17.799Z,74.10
2017-11-23T03:07:20.478Z,74.89
2017-11-23T03:08:23.532Z,75.44
2017-11-23T03:09:26.243Z,75.97
2017-11-23T03:10:29.041Z,74.14
2017-11-23T03:11:31.695Z,72.87
2017-11-23T03:12:34.358Z,72.91
2017-11-23T03:13:37.037Z,70.97
2017-11-23T03:14:39.723Z,70.17
2017-11-23T03:15:42.403Z,71.43
2017-11-23T03:16:45.078Z,73.27
2017-11-23T03:17:47.792Z,73.27
2017-11-23T03:18:50.428Z,72.74
2017-11-23T03:19:53.105Z,72.14
2017-11-23T03:20:56.313Z,73.04
2017-11-23T03:21:59.033Z,74.48
2017-11-23T03:23:01.797Z,72.83
2017-11-23T03:24:04.486Z,72.22
2017-11-23T03:25:07.166Z,72.47
2017-11-23T03:26:09.861Z,71.70
2017-11-23T03:27:12.811Z,70.52
2017-11-23T03:28:15.488Z,71.27
2017-11-23T03:29:18.154Z,70.74
2017-11-23T03:30:20.807Z,70.62
2017-11-23T03:31:23.467Z,71.60
2017-11-23T03:32:26.135Z,70.77
2017-11-23T03:33:29.111Z,70.85
2017-11-23T03:34:31.733Z,70.43
2017-11-23T03:35:34.407Z,70.00
2017-11-23T03:36:37.177Z,70.04
2017-11-23T03:37:39.841Z,69.87
2017-11-23T03:38:42.543Z,69.75
2017-11-23T03:39:45.548Z,69.99
2017-11-23T03:40:48.229Z,69.40
2017-11-23T03:41:50.915Z,69.00
2017-11-23T03:42:53.613Z,69.68
2017-11-23T03:43:56.332Z,69.90
2017-11-23T03:44:59.027Z,69.31
2017-11-23T03:46:02.192Z,69.33
2017-11-23T03:47:05.045Z,70.10
2017-11-23T03:48:07.800Z,70.65
2017-11-23T03:49:10.488Z,70.65
2017-11-23T03:50:13.876Z,71.03
2017-11-23T03:51:16.541Z,70.81
2017-11-23T03:52:19.881Z,71.29
2017-11-23T03:53:22.528Z,71.44
2017-11-23T03:54:25.130Z,70.69
2017-11-23T03:55:27.692Z,70.46
2017-11-23T03:56:30.273Z,70.03
2017-11-23T03:57:32.829Z,69.21
2017-11-23T03:58:35.941Z,68.96
2017-11-23T03:59:38.498Z,69.36
2017-11-23T04:00:41.056Z,69.42
2017-11-23T04:01:43.724Z,69.69
2017-11-23T04:02:46.450Z,70.18
2017-11-23T04:03:49.096Z,69.95
2017-11-23T04:04:52.136Z,69.76
2017-11-23T04:05:54.784Z,69.69
2017-11-23T04:06:58.458Z,69.73
2017-11-23T04:08:01.144Z,69.41
2017-11-23T04:09:03.942Z,68.82
2017-11-23T04:10:06.649Z,69.23
2017-11-23T04:11:09.676Z,69.26
2017-11-23T04:12:12.350Z,69.68
2017-11-23T04:13:15.023Z,70.13
2017-11-23T04:14:17.664Z,69.81
2017-11-23T04:15:20.386Z,70.19
2017-11-23T04:16:23.104Z,70.74
2017-11-23T04:17:26.040Z,70.95
2017-11-23T04:18:28.703Z,70.80
2017-11-23T04:19:31.475Z,71.06
2017-11-23T04:20:34.128Z,71.29
2017-11-23T04:21:36.781Z,70.85
2017-11-23T04:22:39.448Z,71.18
2017-11-23T04:23:42.605Z,71.11
2017-11-23T04:24:46.089Z,71.02
2017-11-23T04:25:48.740Z,71.54
2017-11-23T04:26:51.464Z,71.99
2017-11-23T04:27:54.252Z,72.34
2017-11-23T04:28:57.090Z,72.29
2017-11-23T04:30:00.164Z,72.29
2017-11-23T04:31:02.861Z,72.58
2017-11-23T04:32:05.550Z,72.67
2017-11-23T04:33:08.225Z,72.57
2017-11-23T04:34:10.751Z,72.22
2017-11-23T04:35:13.359Z,71.69
2017-11-23T04:36:16.308Z,71.71
2017-11-23T04:37:18.928Z,71.48
2017-11-23T04:38:21.576Z,71.61
2017-11-23T04:39:24.223Z,71.46
2017-11-23T04:40:26.826Z,71.35
2017-11-23T04:41:29.426Z,70.87
2017-11-23T04:42:32.549Z,70.16
2017-11-23T04:43:35.159Z,69.62
2017-11-23T04:44:37.753Z,69.56
2017-11-23T04:45:40.429Z,69.98
2017-11-23T04:46:43.077Z,70.56
2017-11-23T04:47:45.736Z,71.38
2017-11-23T04:48:48.661Z,71.08
2017-11-23T04:49:51.323Z,70.55
2017-11-23T04:50:53.968Z,70.74
2017-11-23T04:51:56.604Z,70.57
2017-11-23T04:52:59.250Z,70.19
2017-11-23T04:54:01.895Z,70.65
2017-11-23T04:55:04.827Z,70.33
2017-11-23T04:56:07.520Z,69.90
2017-11-23T04:57:10.178Z,69.40
2017-11-23T04:58:12.808Z,69.70
2017-11-23T04:59:15.481Z,70.06
2017-11-23T05:15:24.860Z,68.12
2017-11-23T05:16:27.605Z,68.64
2017-11-23T05:17:30.157Z,68.60
2017-11-23T05:18:32.769Z,68.51
2017-11-23T05:19:35.382Z,68.83
2017-11-23T05:20:38.139Z,69.45
2017-11-23T05:21:40.834Z,69.35
2017-11-23T05:22:43.621Z,69.71
2017-11-23T05:23:46.329Z,69.65
2017-11-23T05:24:49.341Z,69.55
2017-11-23T05:25:52.370Z,69.42
2017-11-23T05:26:55.076Z,69.50
2017-11-23T05:27:57.769Z,69.54
2017-11-23T05:29:00.426Z,69.81
2017-11-23T05:30:03.088Z,70.06
2017-11-23T05:31:05.785Z,70.63
2017-11-23T05:32:08.760Z,70.91
2017-11-23T05:33:11.451Z,71.47
2017-11-23T05:34:14.065Z,70.45
2017-11-23T05:35:16.726Z,70.72
2017-11-23T05:36:19.346Z,69.42
2017-11-23T05:37:21.964Z,67.91
2017-11-23T05:38:25.006Z,67.49
2017-11-23T05:39:27.660Z,67.89
2017-11-23T05:40:30.291Z,68.31
2017-11-23T05:41:32.960Z,68.84
2017-11-23T05:42:35.968Z,69.14
2017-11-23T05:43:38.647Z,68.67
2017-11-23T05:44:41.570Z,68.56
2017-11-23T05:45:44.267Z,68.81
2017-11-23T05:46:46.898Z,68.50
2017-11-23T05:47:49.589Z,68.48
2017-11-23T05:48:52.268Z,68.47
2017-11-23T05:49:54.921Z,68.18
2017-11-23T05:50:57.868Z,68.45
2017-11-23T05:52:00.521Z,68.53
2017-11-23T05:53:04.168Z,68.23
2017-11-23T05:54:06.895Z,68.34
2017-11-23T05:55:09.580Z,68.78
2017-11-23T05:56:12.233Z,68.48
2017-11-23T05:57:15.201Z,68.55
2017-11-23T05:58:17.837Z,68.73
2017-11-23T05:59:20.482Z,69.19
2017-11-23T06:00:23.098Z,69.74
2017-11-23T06:01:25.874Z,70.13
2017-11-23T06:02:28.517Z,70.17
2017-11-23T06:03:31.659Z,70.01
2017-11-23T06:04:34.376Z,69.38
2017-11-23T06:05:37.078Z,69.10
2017-11-23T06:06:39.638Z,69.49
2017-11-23T06:07:42.186Z,69.72
2017-11-23T06:08:44.795Z,69.94
2017-11-23T06:09:47.709Z,70.11
2017-11-23T06:10:50.270Z,70.25
2017-11-23T06:11:53.139Z,70.31
2017-11-23T06:12:55.791Z,70.52
2017-11-23T06:13:58.478Z,70.43
2017-11-23T06:15:01.283Z,70.08
2017-11-23T06:16:04.302Z,69.87
2017-11-23T06:17:06.987Z,69.65
2017-11-23T06:18:09.940Z,69.83
2017-11-23T06:19:12.596Z,70.00
2017-11-23T06:20:15.413Z,70.38
2017-11-23T06:21:18.149Z,70.19
2017-11-23T06:22:21.187Z,70.31
2017-11-23T06:23:23.865Z,70.66
2017-11-23T06:24:26.565Z,71.02
2017-11-23T06:25:29.152Z,71.73
2017-11-23T06:26:31.728Z,71.89
2017-11-23T06:27:34.383Z,72.17
2017-11-23T06:28:37.596Z,72.45
2017-11-23T06:29:40.306Z,72.54
2017-11-23T06:30:43.031Z,72.70
2017-11-23T06:31:45.774Z,73.03
2017-11-23T06:32:48.415Z,73.17
2017-11-23T06:33:51.124Z,73.31
2017-11-23T06:34:54.105Z,73.08
2017-11-23T06:35:56.799Z,73.22
2017-11-23T06:36:59.477Z,73.68
2017-11-23T06:38:02.224Z,73.90
2017-11-23T06:39:04.908Z,73.35
2017-11-23T06:40:07.689Z,73.56
2017-11-23T06:41:10.844Z,73.53
2017-11-23T06:42:13.500Z,73.64
2017-11-23T06:43:16.216Z,72.97
2017-11-23T06:44:18.932Z,71.58
2017-11-23T06:45:21.676Z,70.78
2017-11-23T06:46:24.462Z,70.52
2017-11-23T06:47:27.986Z,70.27
2017-11-23T06:48:30.765Z,70.37
2017-11-23T06:49:33.570Z,70.79
2017-11-23T06:50:36.254Z,71.10
2017-11-23T06:51:38.988Z,71.12
2017-11-23T06:52:41.651Z,71.21
2017-11-23T06:53:44.666Z,71.66
2017-11-23T06:54:47.534Z,71.31
2017-11-23T06:55:50.264Z,70.30
2017-11-23T06:56:52.928Z,70.12
2017-11-23T06:57:55.630Z,69.99
2017-11-23T06:58:58.279Z,69.67
2017-11-23T07:00:01.276Z,69.62
2017-11-23T07:01:03.992Z,69.69
2017-11-23T07:02:06.663Z,70.03
2017-11-23T07:03:09.319Z,70.25
2017-11-23T07:04:11.974Z,70.26
2017-11-23T07:05:14.631Z,69.76
2017-11-23T07:06:17.808Z,69.97
2017-11-23T07:07:20.646Z,69.55
2017-11-23T07:08:23.498Z,69.03
2017-11-23T07:09:26.106Z,68.98
2017-11-23T07:10:28.787Z,68.98
2017-11-23T07:11:31.591Z,69.30
2017-11-23T07:12:34.623Z,69.59
2017-11-23T07:13:37.302Z,69.45
2017-11-23T07:14:40.041Z,69.55
2017-11-23T07:15:42.881Z,70.11
2017-11-23T07:16:45.562Z,70.20
2017-11-23T07:17:52.221Z,70.83
2017-11-23T07:18:54.954Z,70.79
2017-11-23T07:19:57.662Z,70.43
2017-11-23T07:21:00.432Z,70.67
2017-11-23T07:22:03.037Z,70.89
2017-11-23T07:23:05.726Z,70.32
2017-11-23T07:24:08.893Z,70.14
2017-11-23T07:25:11.603Z,69.64
2017-11-23T07:26:14.332Z,69.39
2017-11-23T07:27:16.989Z,69.17
2017-11-23T07:28:19.930Z,69.42
2017-11-23T07:29:22.583Z,69.84
2017-11-23T07:30:25.677Z,69.35
2017-11-23T07:31:28.343Z,69.15
2017-11-23T07:32:31.024Z,69.17
2017-11-23T07:33:33.686Z,68.69
2017-11-23T07:34:37.312Z,68.66
2017-11-23T07:35:39.976Z,68.45
2017-11-23T07:36:42.610Z,68.37
2017-11-23T07:37:45.260Z,68.51
2017-11-23T07:38:47.930Z,68.58
2017-11-23T07:39:50.595Z,68.31
2017-11-23T07:40:53.278Z,68.08
2017-11-23T07:41:55.928Z,68.00
2017-11-23T07:42:58.989Z,67.18
2017-11-23T07:44:01.635Z,67.43
2017-11-23T07:45:04.304Z,68.04
2017-11-23T07:46:06.959Z,67.53
2017-11-23T07:47:09.637Z,67.87
2017-11-23T07:48:12.236Z,68.07
2017-11-23T07:49:15.317Z,67.31
2017-11-23T07:50:17.980Z,67.28
2017-11-23T07:51:20.616Z,67.57
2017-11-23T07:52:23.232Z,67.33
2017-11-23T07:53:25.885Z,67.43
2017-11-23T07:54:28.534Z,66.96
2017-11-23T07:55:31.511Z,66.91
2017-11-23T07:56:34.251Z,67.22
2017-11-23T07:57:36.929Z,67.72
2017-11-23T07:58:39.611Z,67.74
2017-11-23T07:59:42.283Z,67.23
2017-11-23T08:00:44.931Z,67.07
2017-11-23T08:01:47.948Z,66.55
2017-11-23T08:02:50.613Z,66.43
2017-11-23T08:03:53.295Z,66.72
2017-11-23T08:04:55.959Z,67.09
2017-11-23T08:05:58.596Z,66.71
2017-11-23T08:07:01.407Z,67.36
2017-11-23T08:08:04.475Z,67.62
2017-11-23T08:09:08.035Z,67.24
2017-11-23T08:10:11.701Z,66.86
2017-11-23T08:11:15.826Z,67.00
2017-11-23T08:12:18.851Z,67.20
2017-11-23T08:13:22.145Z,67.53
2017-11-23T08:14:26.228Z,66.84
2017-11-23T08:15:28.975Z,67.06
2017-11-23T08:16:31.675Z,66.99
2017-11-23T08:17:34.549Z,67.26
2017-11-23T08:18:37.295Z,66.99
2017-11-23T08:19:39.872Z,67.25
2017-11-23T08:20:42.800Z,66.83
2017-11-23T08:21:45.417Z,66.39
2017-11-23T08:22:48.064Z,66.74
2017-11-23T08:23:50.808Z,66.72
2017-11-23T08:24:53.490Z,67.23
2017-11-23T08:25:56.209Z,67.15
2017-11-23T08:26:59.282Z,67.43
2017-11-23T08:28:02.652Z,67.35
2017-11-23T08:29:05.420Z,67.08
2017-11-23T08:30:08.379Z,66.58
2017-11-23T08:31:11.074Z,66.43
2017-11-23T08:32:13.949Z,66.77
2017-11-23T08:33:17.227Z,66.62
2017-11-23T08:34:19.895Z,66.93
2017-11-23T08:35:22.642Z,66.86
2017-11-23T08:36:25.298Z,66.66
2017-11-23T08:37:28.092Z,66.73
2017-11-23T08:38:30.863Z,66.76
2017-11-23T08:39:33.991Z,66.83
2017-11-23T08:40:36.716Z,66.18
2017-11-23T08:41:39.387Z,65.76
2017-11-23T08:42:42.127Z,65.90
2017-11-23T08:43:44.781Z,65.94
2017-11-23T08:44:47.459Z,66.14
2017-11-23T08:45:50.643Z,66.19
2017-11-23T08:46:53.282Z,66.59
2017-11-23T08:47:55.897Z,66.25
2017-11-23T08:48:58.586Z,66.52
2017-11-23T08:50:01.287Z,66.55
2017-11-23T08:51:03.896Z,66.36
2017-11-23T08:52:07.032Z,66.32
2017-11-23T08:53:09.653Z,66.19
2017-11-23T08:54:12.339Z,65.82
2017-11-23T08:55:15.882Z,65.85
2017-11-23T08:56:20.439Z,65.70
2017-11-23T08:57:23.094Z,65.75
2017-11-23T08:58:26.221Z,65.88
2017-11-23T08:59:28.878Z,65.79
2017-11-23T09:00:31.552Z,65.98
2017-11-23T09:01:34.190Z,65.59
2017-11-23T09:02:36.936Z,65.72
2017-11-23T09:03:39.778Z,65.73
2017-11-23T09:04:42.807Z,65.82
2017-11-23T09:05:45.505Z,65.89
2017-11-23T09:06:48.310Z,65.95
2017-11-23T09:07:52.302Z,65.24
2017-11-23T09:08:55.162Z,65.22
2017-11-23T09:09:58.317Z,64.84
2017-11-23T09:11:01.189Z,64.98
2017-11-23T09:12:03.920Z,64.89
2017-11-23T09:13:09.589Z,64.83
2017-11-23T09:14:12.274Z,64.75
2017-11-23T09:15:15.000Z,64.66
2017-11-23T09:16:17.614Z,64.96
2017-11-23T09:17:21.484Z,64.88
2017-11-23T09:18:24.205Z,64.95
2017-11-23T09:19:26.839Z,64.97
2017-11-23T09:20:29.620Z,64.98
2017-11-23T09:21:32.310Z,65.23
2017-11-23T09:22:35.043Z,64.64
2017-11-23T09:23:38.060Z,64.43
2017-11-23T09:24:40.765Z,64.61
2017-11-23T09:25:43.463Z,64.30
2017-11-23T09:26:46.175Z,64.38
2017-11-23T09:27:49.738Z,64.09
2017-11-23T09:28:52.483Z,64.14
2017-11-23T09:29:55.756Z,64.32
2017-11-23T09:30:58.630Z,63.67
2017-11-23T09:32:01.534Z,64.16
2017-11-23T09:33:04.196Z,64.29
2017-11-23T09:34:06.989Z,64.12
2017-11-23T09:35:09.672Z,64.14
2017-11-23T09:36:12.871Z,63.96
2017-11-23T09:37:15.559Z,64.46
2017-11-23T09:38:18.419Z,64.50
2017-11-23T09:39:21.153Z,64.38
2017-11-23T09:40:23.917Z,64.26
2017-11-23T09:41:26.612Z,63.91
2017-11-23T09:42:29.741Z,63.88
2017-11-23T09:43:32.413Z,63.50
2017-11-23T09:44:35.066Z,63.24
2017-11-23T09:45:37.753Z,63.13
2017-11-23T09:46:40.398Z,63.13
2017-11-23T09:47:43.053Z,63.26
2017-11-23T09:48:47.451Z,63.00
2017-11-23T09:49:50.147Z,62.98
2017-11-23T09:50:52.993Z,62.60
2017-11-23T09:51:55.668Z,62.29
2017-11-23T09:52:58.611Z,62.08
2017-11-23T09:54:01.326Z,62.22
2017-11-23T09:55:04.472Z,61.94
2017-11-23T09:56:07.163Z,61.29
2017-11-23T09:57:09.849Z,60.23
2017-11-23T09:58:12.613Z,57.62
2017-11-23T09:59:15.288Z,55.01
2017-11-23T10:00:17.978Z,57.23
2017-11-23T10:01:20.996Z,58.77
2017-11-23T10:02:24.031Z,57.14
2017-11-23T10:03:26.737Z,55.29
2017-11-23T10:04:29.388Z,56.44
2017-11-23T10:05:32.114Z,58.49
2017-11-23T10:06:34.910Z,60.26
2017-11-23T10:07:37.642Z,61.15
2017-11-23T10:08:40.336Z,61.04
2017-11-23T10:09:44.105Z,61.04
2017-11-23T10:10:47.020Z,60.59
2017-11-23T10:11:49.697Z,60.67
2017-11-23T10:12:52.348Z,60.78
2017-11-23T10:13:55.054Z,61.15
2017-11-23T10:14:57.794Z,61.31
2017-11-23T10:16:00.515Z,61.39
2017-11-23T10:17:03.281Z,61.37
2017-11-23T10:18:06.273Z,61.00
2017-11-23T10:19:08.969Z,60.85
2017-11-23T10:20:11.691Z,61.03
2017-11-23T10:21:14.476Z,60.97
2017-11-23T10:22:17.177Z,61.37
2017-11-23T10:23:19.853Z,61.29
2017-11-23T10:24:22.962Z,61.38
2017-11-23T10:25:25.692Z,61.48
2017-11-23T10:26:28.418Z,61.82
2017-11-23T10:27:31.215Z,61.75
2017-11-23T10:28:33.903Z,61.84
2017-11-23T10:29:36.618Z,61.90
2017-11-23T10:30:39.764Z,61.81
2017-11-23T10:31:42.464Z,61.91
2017-11-23T10:32:45.171Z,62.20
2017-11-23T10:33:47.850Z,62.37
2017-11-23T10:34:50.544Z,62.38
2017-11-23T10:35:53.284Z,62.64
2017-11-23T10:36:56.615Z,62.45
2017-11-23T10:37:59.341Z,62.34
2017-11-23T10:39:02.113Z,62.62
2017-11-23T10:40:04.789Z,62.46
2017-11-23T10:41:08.915Z,62.36
2017-11-23T10:42:11.774Z,62.58
2017-11-23T10:43:15.024Z,62.65
2017-11-23T10:44:17.832Z,62.63
2017-11-23T10:45:20.502Z,62.80
2017-11-23T10:46:23.176Z,63.01
2017-11-23T10:47:25.918Z,62.76
2017-11-23T10:48:28.685Z,62.80
2017-11-23T10:49:31.717Z,62.96
2017-11-23T10:50:35.251Z,63.14
2017-11-23T10:51:37.921Z,63.25
2017-11-23T10:52:40.629Z,63.32
2017-11-23T10:53:43.275Z,63.19
2017-11-23T10:54:45.990Z,63.07
2017-11-23T10:55:49.927Z,63.02
2017-11-23T10:56:54.627Z,63.18
2017-11-23T10:57:59.623Z,63.18
2017-11-23T10:59:03.315Z,63.27
2017-11-23T11:15:36.794Z,63.63
2017-11-23T11:16:39.536Z,63.28
2017-11-23T11:17:42.102Z,63.40
2017-11-23T11:18:44.855Z,63.51
2017-11-23T11:19:47.536Z,63.40
2017-11-23T11:20:50.608Z,63.46
2017-11-23T11:21:53.266Z,63.28
2017-11-23T11:22:56.464Z,63.41
2017-11-23T11:23:59.176Z,63.19
2017-11-23T11:25:01.900Z,63.17
2017-11-23T11:26:04.635Z,63.15
2017-11-23T11:27:07.792Z,63.37
2017-11-23T11:28:10.460Z,63.47
2017-11-23T11:29:13.139Z,63.34
2017-11-23T11:30:15.869Z,63.90
2017-11-23T11:34:59.063Z,63.23
2017-11-23T11:36:02.281Z,63.40
2017-11-23T11:37:04.998Z,63.43
2017-11-23T11:38:07.685Z,63.19
2017-11-23T11:39:10.376Z,63.55
2017-11-23T11:40:13.260Z,63.28
2017-11-23T11:41:16.379Z,62.67
2017-11-23T11:42:19.585Z,62.91
2017-11-23T11:43:22.262Z,63.01
2017-11-23T11:44:25.080Z,63.22
2017-11-23T11:45:27.755Z,63.12
2017-11-23T11:46:30.538Z,63.10
2017-11-23T11:47:33.788Z,62.83
2017-11-23T11:48:36.450Z,63.05
2017-11-23T11:49:40.029Z,63.10
2017-11-23T11:50:42.918Z,62.97
2017-11-23T11:51:45.659Z,63.25
2017-11-23T11:52:48.383Z,63.46
2017-11-23T11:53:51.599Z,63.53
2017-11-23T11:54:54.316Z,63.87
2017-11-23T11:55:57.030Z,63.87
2017-11-23T11:56:59.697Z,63.85
2017-11-23T11:58:02.395Z,64.13
2017-11-23T11:59:05.175Z,64.19
2017-11-23T12:00:08.170Z,64.26
2017-11-23T12:01:10.727Z,64.42
2017-11-23T12:02:13.324Z,64.65
2017-11-23T12:03:15.949Z,64.51
2017-11-23T12:04:19.505Z,64.80
2017-11-23T12:05:22.064Z,64.36
2017-11-23T12:06:26.349Z,64.58
2017-11-23T12:07:29.084Z,64.63
2017-11-23T12:08:31.853Z,65.17
2017-11-23T12:09:34.565Z,64.60
2017-11-23T12:10:37.361Z,64.17
2017-11-23T12:11:40.099Z,63.93
2017-11-23T12:12:43.396Z,63.54
2017-11-23T12:13:46.072Z,63.83
2017-11-23T12:14:48.839Z,64.25
2017-11-23T12:15:51.555Z,64.13
2017-11-23T12:16:54.814Z,63.80
2017-11-23T12:17:57.712Z,64.12
2017-11-23T12:19:00.966Z,64.33
2017-11-23T12:20:03.853Z,64.58
2017-11-23T12:21:06.731Z,64.52
2017-11-23T12:22:09.575Z,64.75
2017-11-23T12:23:12.372Z,64.48
2017-11-23T12:24:15.363Z,64.55
2017-11-23T12:25:18.415Z,65.04
2017-11-23T12:26:21.084Z,65.08
2017-11-23T12:27:23.739Z,65.35
2017-11-23T12:28:26.508Z,65.61
2017-11-23T12:29:29.216Z,65.99
2017-11-23T12:30:31.986Z,66.31
2017-11-23T12:31:35.060Z,66.92
2017-11-23T12:32:38.722Z,67.38
2017-11-23T12:33:41.601Z,67.83
2017-11-23T12:34:44.310Z,68.25
2017-11-23T12:35:47.031Z,67.98
2017-11-23T12:36:50.314Z,68.02
2017-11-23T12:37:53.493Z,68.73
2017-11-23T12:38:56.753Z,68.69
2017-11-23T12:39:59.619Z,68.93
2017-11-23T12:41:02.268Z,69.14
2017-11-23T12:42:05.103Z,69.34
2017-11-23T12:43:08.749Z,69.00
2017-11-23T12:44:12.026Z,68.51
2017-11-23T12:45:14.685Z,69.14
2017-11-23T12:46:17.452Z,68.61
2017-11-23T12:47:20.156Z,68.69
2017-11-23T12:48:22.767Z,67.98
2017-11-23T12:49:25.487Z,68.07
2017-11-23T12:50:28.580Z,68.90
2017-11-23T12:51:31.482Z,67.84
2017-11-23T12:52:34.130Z,68.08
2017-11-23T12:53:36.775Z,67.82
2017-11-23T12:54:39.494Z,67.88
2017-11-23T12:55:42.228Z,68.08
2017-11-23T12:56:45.450Z,67.89
2017-11-23T12:57:48.329Z,67.72
2017-11-23T12:58:51.061Z,67.93
2017-11-23T12:59:54.131Z,67.68
2017-11-23T13:00:56.775Z,67.83
2017-11-23T13:01:59.414Z,67.76
2017-11-23T13:03:02.540Z,67.42
2017-11-23T13:04:05.284Z,67.25
2017-11-23T13:05:07.981Z,67.39
2017-11-23T13:06:10.660Z,67.44
2017-11-23T13:07:16.697Z,67.58
2017-11-23T13:08:19.331Z,67.35
2017-11-23T13:09:22.287Z,67.05
2017-11-23T13:10:24.884Z,67.00
2017-11-23T13:11:27.464Z,66.98
2017-11-23T13:12:30.133Z,67.28
2017-11-23T13:13:33.382Z,67.05
2017-11-23T13:14:35.974Z,67.15
2017-11-23T13:15:38.943Z,66.72
2017-11-23T13:16:41.697Z,66.76
2017-11-23T13:17:44.436Z,66.86
2017-11-23T13:18:47.116Z,66.66
2017-11-23T13:19:50.095Z,66.63
2017-11-23T13:20:52.781Z,66.86
2017-11-23T13:21:55.800Z,66.95
2017-11-23T13:22:58.464Z,66.94
2017-11-23T13:24:01.038Z,66.92
2017-11-23T13:25:03.789Z,67.03
2017-11-23T13:26:06.584Z,66.74
2017-11-23T13:27:09.165Z,66.84
2017-11-23T13:28:12.131Z,66.99
2017-11-23T13:29:14.877Z,66.86
2017-11-23T13:30:17.594Z,67.18
2017-11-23T13:31:20.177Z,66.99
2017-11-23T13:32:22.921Z,67.39
2017-11-23T13:33:25.520Z,67.44
2017-11-23T13:34:28.460Z,67.14
2017-11-23T13:35:31.010Z,67.17
2017-11-23T13:36:33.736Z,67.07
2017-11-23T13:37:36.500Z,67.04
2017-11-23T13:38:39.177Z,67.17
2017-11-23T13:39:41.979Z,67.20
2017-11-23T13:40:45.111Z,67.26
2017-11-23T13:41:47.742Z,67.24
2017-11-23T13:42:50.549Z,67.31
2017-11-23T13:43:53.239Z,67.17
2017-11-23T13:44:55.951Z,67.16
2017-11-23T13:45:58.661Z,67.38
2017-11-23T13:47:01.839Z,67.06
2017-11-23T13:48:04.582Z,67.08
2017-11-23T13:49:07.276Z,67.29
2017-11-23T13:50:09.945Z,67.36
2017-11-23T13:51:12.714Z,67.48
2017-11-23T13:52:15.442Z,67.68
2017-11-23T13:53:18.519Z,67.81
2017-11-23T13:54:21.190Z,67.80
2017-11-23T13:55:23.850Z,67.75
2017-11-23T13:56:26.434Z,67.95
2017-11-23T13:57:29.104Z,68.06
2017-11-23T13:58:31.857Z,67.98
2017-11-23T13:59:34.889Z,68.05
2017-11-23T14:00:37.581Z,68.22
2017-11-23T14:01:40.286Z,68.00
2017-11-23T14:02:43.077Z,68.31
2017-11-23T14:03:45.822Z,68.41